createdAt,value
2022-12-15T00:02:58.401Z,-0.80
2022-12-15T00:06:19.694Z,-0.90
2022-12-15T00:09:40.390Z,-1.00
2022-12-15T00:13:00.817Z,-1.10
2022-12-15T00:16:21.836Z,-1.20
2022-12-15T00:19:42.303Z,-1.30
2022-12-15T00:23:02.826Z,-1.40
2022-12-15T00:26:23.968Z,-1.40
2022-12-15T00:29:44.868Z,-1.40
2022-12-15T00:33:05.767Z,-1.50
2022-12-15T00:36:26.945Z,-1.50
2022-12-15T00:39:29.040Z,-1.60
2022-12-15T00:42:32.324Z,-1.60
2022-12-15T00:45:53.157Z,-1.60
2022-12-15T00:48:55.343Z,-1.70
2022-12-15T00:52:16.203Z,-1.70
2022-12-15T00:55:36.504Z,-1.70
2022-12-15T00:58:57.063Z,-1.80
2022-12-15T01:02:18.389Z,-1.80
2022-12-15T01:05:39.205Z,-1.70
2022-12-15T01:09:00.058Z,-1.70
2022-12-15T01:12:20.791Z,-1.70
2022-12-15T01:15:41.424Z,-1.80
2022-12-15T01:19:02.212Z,-1.80
2022-12-15T01:22:05.916Z,-1.90
2022-12-15T01:25:09.232Z,-2.00
2022-12-15T01:28:11.381Z,-2.10
2022-12-15T01:31:13.570Z,-2.10
2022-12-15T01:34:15.743Z,-2.20
2022-12-15T01:37:17.921Z,-2.20
2022-12-15T01:40:39.930Z,-2.20
2022-12-15T01:43:42.134Z,-2.10
2022-12-15T01:46:44.443Z,-2.00
2022-12-15T01:49:47.769Z,-1.90
2022-12-15T01:52:52.430Z,-1.90
2022-12-15T01:55:54.549Z,-2.00
2022-12-15T01:58:59.908Z,-1.90
2022-12-15T02:02:03.147Z,-1.70
2022-12-15T02:05:06.411Z,-1.70
2022-12-15T02:08:09.678Z,-1.90
2022-12-15T02:11:23.217Z,-2.00
2022-12-15T02:14:37.188Z,-2.00
2022-12-15T02:17:48.500Z,-2.10
2022-12-15T02:21:07.125Z,-2.10
2022-12-15T02:24:10.687Z,-2.10
2022-12-15T02:27:36.276Z,-2.10
2022-12-15T02:31:14.409Z,-2.10
2022-12-15T02:34:35.551Z,-2.10
2022-12-15T02:37:39.814Z,-2.10
2022-12-15T02:40:42.270Z,-2.10
2022-12-15T02:43:44.346Z,-2.10
2022-12-15T02:46:52.143Z,-2.10
2022-12-15T02:50:20.657Z,-2.00
2022-12-15T02:53:37.838Z,-1.90
2022-12-15T02:57:06.177Z,-1.80
2022-12-15T03:00:11.259Z,-1.80
2022-12-15T03:03:20.268Z,-1.70
2022-12-15T03:06:25.087Z,-1.60
2022-12-15T03:09:27.650Z,-1.60
2022-12-15T03:12:29.833Z,-1.50
2022-12-15T03:15:35.449Z,-1.40
2022-12-15T03:18:38.010Z,-1.40
2022-12-15T03:21:40.999Z,-1.30
2022-12-15T03:24:43.115Z,-1.30
2022-12-15T03:27:46.457Z,-1.20
2022-12-15T03:30:50.333Z,-1.20
2022-12-15T03:33:52.821Z,-1.10
2022-12-15T03:36:54.920Z,-1.00
2022-12-15T03:39:56.982Z,-1.00
2022-12-15T03:42:59.275Z,-0.90
2022-12-15T03:46:01.321Z,-0.80
2022-12-15T03:49:03.888Z,-0.80
2022-12-15T03:52:05.921Z,-0.70
2022-12-15T03:55:09.080Z,-0.60
2022-12-15T03:58:11.185Z,-0.60
2022-12-15T04:01:31.369Z,-0.50
2022-12-15T04:04:33.393Z,-0.60
2022-12-15T04:07:35.411Z,-0.60
2022-12-15T04:10:37.604Z,-0.50
2022-12-15T04:13:39.608Z,-0.50
2022-12-15T04:16:41.698Z,-0.40
2022-12-15T04:20:02.451Z,-0.40
2022-12-15T04:23:07.730Z,-0.40
2022-12-15T04:26:28.390Z,-0.40
2022-12-15T04:29:49.365Z,-0.50
2022-12-15T04:33:10.159Z,-0.50
2022-12-15T04:36:32.545Z,-0.50
2022-12-15T04:39:54.576Z,-0.40
2022-12-15T04:43:15.181Z,-0.30
2022-12-15T04:46:35.719Z,-0.30
2022-12-15T04:49:56.312Z,-0.30
2022-12-15T04:53:27.264Z,-0.30
2022-12-15T04:56:49.799Z,-0.20
2022-12-15T05:00:10.526Z,-0.20
2022-12-15T05:03:31.605Z,-0.20
2022-12-15T05:06:52.383Z,-0.20
2022-12-15T05:10:15.373Z,-0.20
2022-12-15T05:13:36.097Z,-0.20
2022-12-15T05:16:56.945Z,-0.10
2022-12-15T05:20:17.395Z,-0.10
2022-12-15T05:23:37.598Z,-0.10
2022-12-15T05:26:58.383Z,-0.10
2022-12-15T05:30:19.031Z,-0.10
2022-12-15T05:33:21.072Z,-0.10
2022-12-15T05:36:23.262Z,0.00
2022-12-15T05:39:26.007Z,0.00
2022-12-15T05:42:28.081Z,0.10
2022-12-15T05:45:30.143Z,0.10
2022-12-15T05:48:32.246Z,0.20
2022-12-15T05:51:37.512Z,0.20
2022-12-15T05:54:39.608Z,0.20
2022-12-15T05:57:41.694Z,0.30
2022-12-15T06:00:43.800Z,0.20
2022-12-15T06:03:46.097Z,0.20
2022-12-15T06:06:48.148Z,0.30
2022-12-15T06:09:50.155Z,0.30
2022-12-15T06:12:52.242Z,0.20
2022-12-15T06:16:07.009Z,0.30
2022-12-15T06:19:09.300Z,0.30
2022-12-15T06:22:11.365Z,0.30
2022-12-15T06:25:13.407Z,0.30
2022-12-15T06:28:16.879Z,0.30
2022-12-15T06:31:22.853Z,0.30
2022-12-15T06:34:25.089Z,0.30
2022-12-15T06:37:27.212Z,0.30
2022-12-15T06:40:31.056Z,0.30
2022-12-15T06:43:36.828Z,0.30
2022-12-15T06:46:38.875Z,0.20
2022-12-15T06:49:41.111Z,0.30
2022-12-15T06:52:43.168Z,0.30
2022-12-15T06:55:45.755Z,0.30
2022-12-15T06:58:49.339Z,0.30
2022-12-15T07:01:51.633Z,0.30
2022-12-15T07:04:53.769Z,0.30
2022-12-15T07:07:55.972Z,0.30
2022-12-15T07:10:58.096Z,0.40
2022-12-15T07:14:00.193Z,0.40
2022-12-15T07:17:02.216Z,0.40
2022-12-15T07:20:05.796Z,0.50
2022-12-15T07:23:09.753Z,0.60
2022-12-15T07:26:11.998Z,0.60
2022-12-15T07:29:19.536Z,0.60
2022-12-15T07:32:25.112Z,0.60
2022-12-15T07:35:27.442Z,0.70
2022-12-15T07:38:30.201Z,0.80
2022-12-15T07:41:32.590Z,0.90
2022-12-15T07:44:34.721Z,0.90
2022-12-15T07:47:37.112Z,0.90
2022-12-15T07:50:39.876Z,0.90
2022-12-15T07:53:41.955Z,0.90
2022-12-15T07:56:44.305Z,1.00
2022-12-15T07:59:52.508Z,1.00
2022-12-15T08:02:54.773Z,1.10
2022-12-15T08:06:03.663Z,1.10
2022-12-15T08:09:06.473Z,1.10
2022-12-15T08:12:08.719Z,1.20
2022-12-15T08:15:11.796Z,1.30
2022-12-15T08:18:13.964Z,1.30
2022-12-15T08:21:16.143Z,1.40
2022-12-15T08:24:19.424Z,1.50
2022-12-15T08:27:24.132Z,1.50
2022-12-15T08:30:26.432Z,1.60
2022-12-15T08:33:28.857Z,1.60
2022-12-15T08:36:32.194Z,1.70
2022-12-15T08:39:34.398Z,1.80
2022-12-15T08:42:37.393Z,1.90
2022-12-15T08:45:41.679Z,2.00
2022-12-15T08:48:44.099Z,2.10
2022-12-15T08:51:46.708Z,2.20
2022-12-15T08:54:52.398Z,2.20
2022-12-15T08:57:54.817Z,2.30
2022-12-15T09:01:04.353Z,2.40
2022-12-15T09:04:06.814Z,2.50
2022-12-15T09:07:08.889Z,2.50
2022-12-15T09:10:11.022Z,2.50
2022-12-15T09:13:13.336Z,2.60
2022-12-15T09:16:17.185Z,2.60
2022-12-15T09:19:19.395Z,2.70
2022-12-15T09:22:21.559Z,3.00
2022-12-15T09:25:26.533Z,3.00
2022-12-15T09:28:29.920Z,3.00
2022-12-15T09:31:36.212Z,3.00
2022-12-15T09:34:38.331Z,3.10
2022-12-15T09:37:40.325Z,3.00
2022-12-15T09:40:42.555Z,2.90
2022-12-15T09:43:52.323Z,2.80
2022-12-15T09:47:46.653Z,2.70
2022-12-15T09:50:52.866Z,2.70
2022-12-15T09:53:56.034Z,2.80
2022-12-15T09:57:08.203Z,2.80
2022-12-15T10:00:25.712Z,2.80
2022-12-15T10:03:49.459Z,2.80
2022-12-15T10:07:27.800Z,2.80
2022-12-15T10:10:51.785Z,2.90
2022-12-15T10:14:06.638Z,3.00
2022-12-15T10:17:46.406Z,3.00
2022-12-15T10:20:56.149Z,3.10
2022-12-15T10:24:37.418Z,3.20
2022-12-15T10:28:00.708Z,3.40
2022-12-15T10:31:25.800Z,3.50
2022-12-15T10:34:33.675Z,3.60
2022-12-15T10:37:36.517Z,3.90
2022-12-15T10:41:01.071Z,3.80
2022-12-15T10:44:03.192Z,3.80
2022-12-15T10:47:20.345Z,4.10
2022-12-15T10:50:25.534Z,4.30
2022-12-15T10:53:50.893Z,4.20
2022-12-15T10:57:00.599Z,4.10
2022-12-15T11:00:29.888Z,4.20
2022-12-15T11:03:38.051Z,4.30
2022-12-15T11:06:42.665Z,4.30
2022-12-15T11:09:46.802Z,4.40
2022-12-15T11:13:22.661Z,4.50
2022-12-15T11:16:24.960Z,4.70
2022-12-15T11:19:59.972Z,4.60
2022-12-15T11:23:30.771Z,4.20
2022-12-15T11:26:58.125Z,4.20
2022-12-15T11:30:20.087Z,4.20
2022-12-15T11:33:22.358Z,4.30
2022-12-15T11:36:48.496Z,4.30
2022-12-15T11:40:23.734Z,4.20
2022-12-15T11:43:51.206Z,4.10
2022-12-15T11:47:23.035Z,3.90
2022-12-15T11:50:31.357Z,3.90
2022-12-15T11:53:56.083Z,3.90
2022-12-15T11:57:34.863Z,3.80
2022-12-15T12:01:01.679Z,3.80
2022-12-15T12:04:06.422Z,3.80
2022-12-15T12:07:51.929Z,3.80
2022-12-15T12:11:09.632Z,3.80
2022-12-15T12:14:26.840Z,3.80
2022-12-15T12:17:45.310Z,3.80
2022-12-15T12:20:53.064Z,3.80
2022-12-15T12:24:25.239Z,3.80
2022-12-15T12:27:40.056Z,3.80
2022-12-15T12:30:48.657Z,3.70
2022-12-15T12:33:58.833Z,3.70
2022-12-15T12:37:22.811Z,3.70
2022-12-15T12:40:43.248Z,3.80
2022-12-15T12:43:55.748Z,3.80
2022-12-15T12:47:00.467Z,3.90
2022-12-15T12:50:07.886Z,3.90
2022-12-15T12:53:34.438Z,4.00
2022-12-15T12:56:45.404Z,3.80
2022-12-15T13:00:15.687Z,3.90
2022-12-15T13:03:20.909Z,3.80
2022-12-15T13:06:43.038Z,3.90
2022-12-15T13:09:58.134Z,3.80
2022-12-15T13:13:18.967Z,3.80
2022-12-15T13:16:26.743Z,3.80
2022-12-15T13:20:10.805Z,3.80
2022-12-15T13:23:22.165Z,3.70
2022-12-15T13:26:30.534Z,3.60
2022-12-15T13:29:34.164Z,3.70
2022-12-15T13:32:37.175Z,3.70
2022-12-15T13:35:42.517Z,3.70
2022-12-15T13:38:55.380Z,3.70
2022-12-15T13:45:36.419Z,3.60
2022-12-15T13:48:49.288Z,3.60
2022-12-15T13:51:58.916Z,3.60
2022-12-15T13:55:07.567Z,3.70
2022-12-15T13:58:09.651Z,3.60
2022-12-15T14:01:32.808Z,3.60
2022-12-15T14:04:35.587Z,3.70
2022-12-15T14:07:39.166Z,3.70
2022-12-15T14:10:43.409Z,3.70
2022-12-15T14:13:50.490Z,3.80
2022-12-15T14:17:02.041Z,3.80
2022-12-15T14:20:12.640Z,3.90
2022-12-15T14:23:23.963Z,3.90
2022-12-15T14:26:30.905Z,3.80
2022-12-15T14:29:32.948Z,3.80
2022-12-15T14:32:35.751Z,3.80
2022-12-15T14:35:49.591Z,3.80
2022-12-15T14:39:03.375Z,3.80
2022-12-15T14:42:07.677Z,3.70
2022-12-15T14:45:28.172Z,3.70
2022-12-15T14:48:42.045Z,3.60
2022-12-15T14:51:48.850Z,3.60
2022-12-15T14:54:57.555Z,3.50
2022-12-15T14:58:00.310Z,3.30
2022-12-15T15:01:03.373Z,3.30
2022-12-15T15:04:29.219Z,3.10
2022-12-15T15:07:33.356Z,3.00
2022-12-15T15:10:35.531Z,2.90
2022-12-15T15:13:40.738Z,2.90
2022-12-15T15:16:43.704Z,2.90
2022-12-15T15:19:58.992Z,2.80
2022-12-15T15:23:17.312Z,2.80
2022-12-15T15:26:19.390Z,2.70
2022-12-15T15:29:41.271Z,2.70
2022-12-15T15:32:58.253Z,2.60
2022-12-15T15:36:02.961Z,2.50
2022-12-15T15:39:13.635Z,2.50
2022-12-15T15:42:15.858Z,2.50
2022-12-15T15:45:17.905Z,2.50
2022-12-15T15:48:25.107Z,2.40
2022-12-15T15:51:29.264Z,2.40
2022-12-15T15:54:36.087Z,2.40
2022-12-15T15:57:38.105Z,2.40
2022-12-15T16:00:40.842Z,2.40
2022-12-15T16:03:42.984Z,2.40
2022-12-15T16:06:47.585Z,2.40
2022-12-15T16:09:50.781Z,2.40
2022-12-15T16:12:55.814Z,2.40
2022-12-15T16:15:58.475Z,2.40
2022-12-15T16:19:00.538Z,2.40
2022-12-15T16:22:02.654Z,2.40
2022-12-15T16:25:06.238Z,2.40
2022-12-15T16:28:17.714Z,2.40
2022-12-15T16:31:41.340Z,2.40
2022-12-15T16:34:44.102Z,2.50
2022-12-15T16:37:46.941Z,2.50
2022-12-15T16:40:49.532Z,2.40
2022-12-15T16:43:52.389Z,2.40
2022-12-15T16:46:54.490Z,2.40
2022-12-15T16:49:56.840Z,2.40
2022-12-15T16:52:59.354Z,2.40
2022-12-15T16:56:04.752Z,2.40
2022-12-15T16:59:31.989Z,2.40
2022-12-15T17:02:31.647Z,2.40
2022-12-15T17:05:36.421Z,2.40
2022-12-15T17:08:45.032Z,2.30
2022-12-15T17:11:47.184Z,2.40
2022-12-15T17:14:49.468Z,2.30
2022-12-15T17:17:52.453Z,2.30
2022-12-15T17:21:04.123Z,2.30
2022-12-15T17:24:11.713Z,2.30
2022-12-15T17:27:28.249Z,2.20
2022-12-15T17:30:32.572Z,2.20
2022-12-15T17:33:36.228Z,2.20
2022-12-15T17:36:38.623Z,2.20
2022-12-15T17:39:44.737Z,2.20
2022-12-15T17:42:48.183Z,2.20
2022-12-15T17:45:56.311Z,2.30
2022-12-15T17:48:59.289Z,2.30
2022-12-15T17:52:05.366Z,2.20
2022-12-15T17:55:18.920Z,2.20
2022-12-15T17:58:24.474Z,2.20
2022-12-15T18:01:27.206Z,2.20
2022-12-15T18:04:29.599Z,2.20
2022-12-15T18:07:31.835Z,2.20
2022-12-15T18:10:40.624Z,2.20
2022-12-15T18:13:46.503Z,2.20
2022-12-15T18:16:49.526Z,2.20
2022-12-15T18:19:51.957Z,2.20
2022-12-15T18:22:54.501Z,2.20
2022-12-15T18:26:02.957Z,2.20
2022-12-15T18:29:20.063Z,2.30
2022-12-15T18:32:25.575Z,2.30
2022-12-15T18:35:38.392Z,2.30
2022-12-15T18:38:41.221Z,2.30
2022-12-15T18:41:43.940Z,2.30
2022-12-15T18:44:51.719Z,2.30
2022-12-15T18:47:54.743Z,2.30
2022-12-15T18:50:59.889Z,2.30
2022-12-15T18:54:02.091Z,2.30
2022-12-15T18:57:24.200Z,2.30
2022-12-15T19:00:30.879Z,2.20
2022-12-15T19:03:34.792Z,2.30
2022-12-15T19:06:38.360Z,2.20
2022-12-15T19:09:44.923Z,2.20
2022-12-15T19:12:50.874Z,2.20
2022-12-15T19:15:57.354Z,2.20
2022-12-15T19:19:18.046Z,2.30
2022-12-15T19:22:30.431Z,2.20
2022-12-15T19:25:33.627Z,2.30
2022-12-15T19:28:36.490Z,2.20
2022-12-15T19:31:39.351Z,2.30
2022-12-15T19:34:41.898Z,2.30
2022-12-15T19:37:46.811Z,2.30
2022-12-15T19:40:53.605Z,2.30
2022-12-15T19:43:56.547Z,2.30
2022-12-15T19:46:58.904Z,2.30
2022-12-15T19:50:01.503Z,2.30
2022-12-15T19:53:31.704Z,2.30
2022-12-15T19:56:34.773Z,2.30
2022-12-15T19:59:38.609Z,2.30
2022-12-15T20:02:41.373Z,2.30
2022-12-15T20:05:44.238Z,2.30
2022-12-15T20:08:48.590Z,2.30
2022-12-15T20:11:50.994Z,2.30
2022-12-15T20:14:54.196Z,2.30
2022-12-15T20:17:57.399Z,2.30
2022-12-15T20:21:00.499Z,2.30
2022-12-15T20:24:08.840Z,2.30
2022-12-15T20:27:19.405Z,2.30
2022-12-15T20:30:25.735Z,2.30
2022-12-15T20:33:30.038Z,2.30
2022-12-15T20:36:32.789Z,2.30
2022-12-15T20:39:35.290Z,2.30
2022-12-15T20:42:38.390Z,2.30
2022-12-15T20:45:41.968Z,2.30
2022-12-15T20:48:46.175Z,2.30
2022-12-15T20:51:49.322Z,2.20
2022-12-15T20:54:53.680Z,2.20
2022-12-15T20:57:56.516Z,2.30
2022-12-15T21:00:59.093Z,2.20
2022-12-15T21:04:07.606Z,2.30
2022-12-15T21:07:12.171Z,2.20
2022-12-15T21:10:15.763Z,2.20
2022-12-15T21:13:31.075Z,2.30
2022-12-15T21:16:34.483Z,2.20
2022-12-15T21:19:36.603Z,2.20
2022-12-15T21:22:39.880Z,2.20
2022-12-15T21:25:42.169Z,2.20
2022-12-15T21:28:44.388Z,2.20
2022-12-15T21:31:47.196Z,2.20
2022-12-15T21:34:50.004Z,2.20
2022-12-15T21:37:53.974Z,2.20
2022-12-15T21:41:02.642Z,2.20
2022-12-15T21:44:05.827Z,2.30
2022-12-15T21:47:47.501Z,2.30
2022-12-15T21:50:49.886Z,2.30
2022-12-15T21:53:53.679Z,2.30
2022-12-15T21:56:55.994Z,2.30
2022-12-15T21:59:58.143Z,2.30
2022-12-15T22:03:00.515Z,2.30
2022-12-15T22:06:02.555Z,2.30
2022-12-15T22:09:04.739Z,2.30
2022-12-15T22:12:20.501Z,2.30
2022-12-15T22:15:23.386Z,2.30
2022-12-15T22:18:25.768Z,2.30
2022-12-15T22:21:27.798Z,2.30
2022-12-15T22:24:29.795Z,2.30
2022-12-15T22:27:33.689Z,2.30
2022-12-15T22:30:35.790Z,2.30
2022-12-15T22:33:37.833Z,2.30
2022-12-15T22:36:39.901Z,2.30
2022-12-15T22:39:42.098Z,2.30
2022-12-15T22:42:49.159Z,2.30
2022-12-15T22:45:53.128Z,2.30
2022-12-15T22:48:56.249Z,2.30
2022-12-15T22:51:58.839Z,2.30
2022-12-15T22:55:00.937Z,2.30
2022-12-15T22:58:08.831Z,2.30
2022-12-15T23:01:11.922Z,2.30
2022-12-15T23:04:14.434Z,2.30
2022-12-15T23:07:16.506Z,2.30
2022-12-15T23:10:38.310Z,2.30
2022-12-15T23:13:40.901Z,2.30
2022-12-15T23:16:44.537Z,2.30
2022-12-15T23:19:46.903Z,2.30
2022-12-15T23:22:49.154Z,2.30
2022-12-15T23:25:51.244Z,2.30
2022-12-15T23:28:55.183Z,2.30
2022-12-15T23:31:57.569Z,2.30
2022-12-15T23:34:59.572Z,2.30
2022-12-15T23:38:01.661Z,2.30
2022-12-15T23:41:04.610Z,2.30
2022-12-15T23:44:06.776Z,2.30
2022-12-15T23:47:08.959Z,2.30
2022-12-15T23:50:11.265Z,2.30
2022-12-15T23:53:13.314Z,2.40
2022-12-15T23:56:20.920Z,2.40
2022-12-15T23:59:23.240Z,2.40
